»·PEaware :: SWA1 KABQ-KSAN

SWA1 :: KABQ-KSAN

FLIGHT INFORMATION

Flight Status: Arrived
Operator:
Southwest Airlines
More flights by this operator :: More flights under this callsign
Pilot: Maximilliano F. (23467)
Aircraft: BOEING 737-800
(B738)
More flights by this aircraft type
Origin: KABQ Albuquerque Intl Sunport
United States
Destination: KSAN San Diego Intl-Lindbergh
United States
More flights between these airports :: More routes between these airports
Route: MNZNO3 SJN J18 HOGGZ LUCKI1
File this flight plan on PilotEdge
Remarks: RMK / SIMBRIEF
Altitude:
(Current/Filed)
36,000ft
Speed:
(Current/Filed)
457kts
Departed: 05-Nov-19 05:02 PM
Arrived: 05-Nov-19 06:38 PM
Distance/Time
Traveled:
545nm/1:36
Distance/Time
To Go:
Arrived

Flight Plot

Page will automatically refresh every two minutes.

Flight plan parsing failed; only flown route is shown


Map Options




Map Legend


Flown Route
Filed Route
Departure Airport
Arrival Airport
Navaid (VOR, NDB)
Fix

Horizontal Profiles

Position Reports

Time Latitude Longitude Heading Altitude Ground
Speed
05-Nov-19 16:26 35.047889 -106.614753 180 5323ft 0kts
05-Nov-19 16:27 35.047889 -106.614753 180 5323ft 0kts
05-Nov-19 16:28 35.047889 -106.614753 180 5323ft 0kts
05-Nov-19 16:29 35.047889 -106.614753 180 5323ft 0kts
05-Nov-19 16:30 35.047889 -106.614753 180 5323ft 0kts
05-Nov-19 16:31 35.047889 -106.614753 180 5323ft 0kts
05-Nov-19 16:32 35.047889 -106.614753 180 5322ft 0kts
05-Nov-19 16:33 35.047889 -106.614753 180 5322ft 0kts
05-Nov-19 16:34 35.047889 -106.614753 180 5322ft 0kts
05-Nov-19 16:35 35.047889 -106.614753 180 5322ft 0kts
05-Nov-19 16:36 35.047889 -106.614753 180 5322ft 0kts
05-Nov-19 16:37 35.047889 -106.614753 180 5322ft 0kts
05-Nov-19 16:38 35.047889 -106.614753 180 5322ft 0kts
05-Nov-19 16:39 35.047889 -106.614753 180 5322ft 0kts
05-Nov-19 16:40 35.047889 -106.614753 180 5322ft 0kts
05-Nov-19 16:41 35.047889 -106.614753 180 5322ft 0kts
05-Nov-19 16:42 35.047889 -106.614753 180 5322ft 0kts
05-Nov-19 16:43 35.047889 -106.614753 180 5322ft 0kts
05-Nov-19 16:44 35.047925 -106.614753 180 5322ft 2kts
05-Nov-19 16:45 35.048372 -106.614983 97 5323ft 1kts
05-Nov-19 16:46 35.048374 -106.615090 91 5322ft 0kts
05-Nov-19 16:47 35.048374 -106.615090 91 5322ft 0kts
05-Nov-19 16:48 35.048374 -106.615090 91 5322ft 0kts
05-Nov-19 16:49 35.048374 -106.615090 91 5322ft 0kts
05-Nov-19 16:50 35.048374 -106.615090 91 5322ft 0kts
05-Nov-19 16:51 35.048350 -106.613970 89 5322ft 9kts
05-Nov-19 16:52 35.048173 -106.613133 155 5322ft 4kts
05-Nov-19 16:53 35.045923 -106.613372 215 5322ft 10kts
05-Nov-19 16:54 35.045562 -106.616688 270 5322ft 13kts
05-Nov-19 16:55 35.045354 -106.621323 207 5322ft 7kts
05-Nov-19 16:56 35.045146 -106.621386 186 5322ft 0kts
05-Nov-19 16:57 35.045146 -106.621386 186 5322ft 0kts
05-Nov-19 16:58 35.045146 -106.621386 186 5322ft 0kts
05-Nov-19 16:59 35.045146 -106.621386 186 5322ft 0kts
05-Nov-19 17:00 35.044810 -106.621397 174 5322ft 5kts
05-Nov-19 17:01 35.044290 -106.612472 90 5323ft 111kts
05-Nov-19 17:02 35.042503 -106.551869 105 6836ft 211kts
05-Nov-19 17:03 34.983995 -106.514641 175 8573ft 282kts
05-Nov-19 17:04 34.902966 -106.515574 184 10501ft 295kts
05-Nov-19 17:05 34.820400 -106.539034 214 12934ft 324kts
05-Nov-19 17:06 34.766957 -106.625372 245 15901ft 330kts
05-Nov-19 17:07 34.728979 -106.728545 244 18631ft 340kts
05-Nov-19 17:08 34.687633 -106.833913 244 20997ft 354kts
05-Nov-19 17:09 34.644678 -106.943780 244 23170ft 366kts
05-Nov-19 17:10 34.600993 -107.056716 248 25259ft 374kts
05-Nov-19 17:11 34.570375 -107.178170 252 27260ft 379kts
05-Nov-19 17:12 34.539807 -107.301164 253 29104ft 383kts
05-Nov-19 17:13 34.508756 -107.425491 253 30739ft 388kts
05-Nov-19 17:14 34.477558 -107.549812 253 32550ft 384kts
05-Nov-19 17:15 34.446982 -107.671047 252 34320ft 375kts
05-Nov-19 17:16 34.432638 -107.795154 267 35810ft 373kts
05-Nov-19 17:17 34.432710 -107.922961 267 36231ft 389kts
05-Nov-19 17:18 34.432430 -108.052578 267 36234ft 383kts
05-Nov-19 17:19 34.432003 -108.181776 267 36257ft 385kts
05-Nov-19 17:20 34.431445 -108.311732 267 36270ft 386kts
05-Nov-19 17:21 34.430744 -108.441918 267 36269ft 387kts
05-Nov-19 17:22 34.429905 -108.572631 267 36267ft 389kts
05-Nov-19 17:23 34.428919 -108.700595 267 36277ft 391kts
05-Nov-19 17:24 34.427775 -108.832479 267 36276ft 391kts
05-Nov-19 17:25 34.426513 -108.964094 267 36275ft 392kts
05-Nov-19 17:26 34.425095 -109.096081 266 36255ft 392kts
05-Nov-19 17:27 34.397662 -109.222556 248 36236ft 391kts
05-Nov-19 17:28 34.356738 -109.343933 248 36233ft 389kts
05-Nov-19 17:29 34.315772 -109.465326 248 36232ft 388kts
05-Nov-19 17:30 34.274947 -109.585824 248 36230ft 386kts
05-Nov-19 17:31 34.236767 -109.697486 247 36240ft 386kts
05-Nov-19 17:32 34.195866 -109.817198 248 36256ft 384kts
05-Nov-19 17:33 34.155095 -109.936183 248 36272ft 383kts
05-Nov-19 17:34 34.114346 -110.054659 248 36255ft 382kts
05-Nov-19 17:35 34.073336 -110.173449 248 36209ft 384kts
05-Nov-19 17:36 34.032211 -110.292127 248 36205ft 384kts
05-Nov-19 17:37 33.990676 -110.410879 247 36203ft 385kts
05-Nov-19 17:38 33.949268 -110.529320 247 36201ft 383kts
05-Nov-19 17:39 33.907713 -110.647903 247 36199ft 385kts
05-Nov-19 17:40 33.867043 -110.763363 247 36215ft 386kts
05-Nov-19 17:41 33.824964 -110.882236 246 36214ft 387kts
05-Nov-19 17:42 33.782687 -111.001312 246 36128ft 387kts
05-Nov-19 17:43 33.740306 -111.120455 246 36031ft 388kts
05-Nov-19 17:44 33.697772 -111.239586 246 36017ft 389kts
05-Nov-19 17:45 33.654859 -111.358879 246 36015ft 389kts
05-Nov-19 17:46 33.612014 -111.478002 246 36014ft 390kts
05-Nov-19 17:47 33.568822 -111.597655 246 36012ft 390kts
05-Nov-19 17:48 33.525886 -111.716040 245 36021ft 390kts
05-Nov-19 17:49 33.482174 -111.836233 245 36020ft 391kts
05-Nov-19 17:50 33.437842 -111.955995 241 36011ft 390kts
05-Nov-19 17:51 33.372538 -112.060428 231 36002ft 393kts
05-Nov-19 17:52 33.304118 -112.162014 232 35997ft 392kts
05-Nov-19 17:53 33.235538 -112.263679 231 35995ft 392kts
05-Nov-19 17:54 33.166980 -112.365026 231 35995ft 393kts
05-Nov-19 17:55 33.098578 -112.465863 231 35990ft 392kts
05-Nov-19 17:56 33.029970 -112.566731 231 35977ft 394kts
05-Nov-19 17:57 32.966127 -112.671110 243 35976ft 393kts
05-Nov-19 17:58 32.939500 -112.798055 257 35970ft 398kts
05-Nov-19 17:59 32.922171 -112.928084 257 35972ft 398kts
05-Nov-19 18:00 32.904469 -113.058346 257 35976ft 400kts
05-Nov-19 18:01 32.886789 -113.187492 257 35983ft 401kts
05-Nov-19 18:02 32.868743 -113.318261 257 35982ft 400kts
05-Nov-19 18:03 32.850566 -113.448935 257 35980ft 401kts
05-Nov-19 18:04 32.832269 -113.579461 257 35980ft 401kts
05-Nov-19 18:05 32.814018 -113.708003 256 35986ft 400kts
05-Nov-19 18:07 32.795153 -113.838097 256 35985ft 400kts
05-Nov-19 18:08 32.776848 -113.968581 260 35984ft 401kts
05-Nov-19 18:09 32.775784 -114.103132 268 35984ft 414kts
05-Nov-19 18:10 32.781763 -114.239245 268 35982ft 412kts
05-Nov-19 18:11 32.788366 -114.375337 275 35984ft 418kts
05-Nov-19 18:12 32.821323 -114.509421 283 35981ft 425kts
05-Nov-19 18:13 32.858065 -114.642737 283 35980ft 426kts
05-Nov-19 18:14 32.878056 -114.777860 265 35989ft 417kts
05-Nov-19 18:15 32.875207 -114.915640 264 35984ft 417kts
05-Nov-19 18:16 32.872072 -115.053657 265 35981ft 419kts
05-Nov-19 18:17 32.868700 -115.195547 265 33357ft 435kts
05-Nov-19 18:18 32.864567 -115.340312 260 29781ft 440kts
05-Nov-19 18:19 32.845520 -115.479631 258 26224ft 425kts
05-Nov-19 18:20 32.823865 -115.613250 256 25976ft 421kts
05-Nov-19 18:21 32.801903 -115.747340 256 25876ft 414kts
05-Nov-19 18:22 32.782724 -115.879343 262 23112ft 396kts
05-Nov-19 18:23 32.773024 -116.011493 263 22140ft 408kts
05-Nov-19 18:24 32.762919 -116.145618 263 17935ft 412kts
05-Nov-19 18:25 32.753007 -116.275215 264 15062ft 365kts
05-Nov-19 18:25 32.745537 -116.370022 264 13265ft 335kts
05-Nov-19 18:26 32.737218 -116.476617 265 11241ft 303kts
05-Nov-19 18:28 32.726570 -116.591266 263 10219ft 310kts
05-Nov-19 18:29 32.717889 -116.684456 265 8575ft 286kts
05-Nov-19 18:29 32.711943 -116.761950 264 6855ft 280kts
05-Nov-19 18:30 32.698638 -116.847309 249 5900ft 235kts
05-Nov-19 18:31 32.676013 -116.922009 258 4770ft 250kts
05-Nov-19 18:32 32.686080 -116.995218 287 3677ft 211kts
05-Nov-19 18:33 32.701805 -117.059019 287 2417ft 184kts
05-Nov-19 18:34 32.714439 -117.110791 286 1295ft 150kts
05-Nov-19 18:35 32.726003 -117.158441 287 473ft 149kts
05-Nov-19 18:36 32.735618 -117.198143 285 21ft 41kts
05-Nov-19 18:37 32.735989 -117.202048 195 18ft 0kts
05-Nov-19 18:38 32.735138 -117.200477 105 19ft 9kts
05-Nov-19 18:39 32.734239 -117.197097 143 21ft 7kts
05-Nov-19 18:40 32.733319 -117.197661 284 21ft 4kts

Navigation Log

Ident Type
Flight plan parsing failed, navigation log unavailable